Aviation Digital Data Service (ADDS)

Output produced by METARs form (0848 UTC 19 November 2017)
found at http://aviationweather.gov/adds/metars/
 
KLCH 190753Z AUTO 36014G23KT 10SM CLR 12/04 A3016 RMK AO2 PK WND 02027/0722 SLP220 T01220039 $